AO2

Tweets about a recent trend: AO2

#KLOT 271835Z AUTO 19010KT 1/2SM FG OVC003 03/03 A2999 RMK AO2 T00340034
RT @KSFO_wx: #KSFO 271756Z 31015KT 10SM FEW022 FEW200 13/06 A3009 RMK AO2 SLP189 60004 T01330061 10133 20106 53027 $
#PHNL 271753Z 08010KT 9SM -RA SCT039 SCT048 BKN055 23/19 A3009 RMK AO2 SLP188 P0000 60000 T02280189 10239 20222 53016
#KLOT 271755Z AUTO 17010KT 1/4SM FG OVC003 03/03 A3000 RMK AO2 T00300030 10030 21006
#PANC 271753Z 19004KT 10SM BKN060 OVC075 M05/M08 A2916 RMK AO2 SLP877 60000 T10501078 11039 21078 53035
#KLAF 271754Z 20010KT 8SM CLR 07/04 A3005 RMK AO2 SLP179 T00720039 10072 20000 58026
#KMDW 271753Z 18009KT 4SM BR OVC005 04/02 A3001 RMK AO2 SLP171 T00390017 10039 20017 58018
#KSTL 271751Z 16008KT 9SM SCT110 OVC150 09/03 A3001 RMK AO2 SLP166 T00890028 10089 20039 58027
#KDFW 271753Z 17014G22KT 10SM BKN017 OVC200 16/11 A2994 RMK AO2 SLP134 T01560106 10161 20128 58021
#KATL 271752Z VRB04KT 10SM FEW020 BKN250 14/M01 A3022 RMK AO2 SLP236 FU FEW020 T01391011 10139 20028 58018
#KPBI 271753Z 05014KT 10SM SCT035 26/13 A3004 RMK AO2 SLP172 T02610133 10261 20156 58019
#KMIA 271753Z 04011KT 10SM SCT040 BKN065 25/14 A3002 RMK AO2 SLP165 T02500144 10261 20178 58025
#KLAX 271753Z 28013KT 10SM FEW017 SCT029 BKN047 14/12 A3006 RMK AO2 RAE49 SLP180 P0003 60005 T01440117 10144 20100 51004 $
#KORD 271810Z 17009KT 2SM BR OVC004 03/02 A2999 RMK AO2 T00330022
#KJFK 271751Z 30015KT 10SM FEW049 SCT100 SCT250 10/M03 A3007 RMK AO2 SLP183 T01001033 10106 20050 58017 $
#KSFO 271756Z 31015KT 10SM FEW022 FEW200 13/06 A3009 RMK AO2 SLP189 60004 T01330061 10133 20106 53027 $
RT @klaxmetar: KLAX 271753Z 28013KT 10SM FEW017 SCT029 BKN047 14/12 A3006 RMK AO2 RAE49 SLP180 P0003 60005 T01440117 10144 20100 51004 $..
KOSH 271753Z 14009KT 8SM CLR 07/03 A2992 RMK AO2 SLP141 I6000 T00670028 10067 21022 58018
KORD 271751Z 18007KT 1 3/4SM BR OVC004 03/02 A3000 RMK AO2 SLP163 T00280022 10028 20006 58017
KJFK 271751Z 30015KT 10SM FEW049 SCT100 SCT250 10/M03 A3007 RMK AO2 SLP183 T01001033 10106 20050 58017 $
KATL 271752Z VRB04KT 10SM FEW020 BKN250 14/M01 A3022 RMK AO2 SLP236 FU FEW020 T01391011 10139 20028 58018
KONT 271753Z 23007KT 3SM -RA BR SCT008 OVC020 10/09 A3005 RMK AO2 RAB06E28B42 SLP178 SCT V BKN P0000 60000 T01000094 10100 20078 50003..
KSFO 271756Z 31015KT 10SM FEW022 FEW200 13/06 A3009 RMK AO2 SLP189 60004 T01330061 10133 20106 53027 $
KJFK 271751Z 30015KT 10SM FEW049 SCT100 SCT250 10/M03 A3007 RMK AO2 SLP183 T01001033 10106 20050 58017 $
KLAX 271753Z 28013KT 10SM FEW017 SCT029 BKN047 14/12 A3006 RMK AO2 RAE49 SLP180 P0003 60005 T01440117 10144 20100 51004 $..